Orion II — 9HUT9 — position and weather

sailwx.info

Track history (hours):
 
Tides and Currents Weather Stations Pressure Air Temp Water Temp Dewpoint Dewpoint Depression Visibility Wind Speed Wind Dir Waves Ship Positions

Orion II

Last reported at 2019-May-20 16:30 UTC. Time now 2019-May-20 16:49 UTC.
Position N 50°38' W 001°55'.

Length 88 m; draft 4.1 m.

Type: Passenger vessel. MMSI: 249556000.

Date/timePositionNaut miles runAvg speedWind from/ knotsBaromVisibWave heightAir tempDewpointWater temp
2019-May-20 16:30N 50°38' W 001°55'5 9.7
2019-May-20 16:00N 50°42' W 001°59'0 0.0
2019-May-20 15:30N 50°42' W 001°59'0 0.0
2019-May-20 14:58N 50°42' W 001°59'0 0.0
2019-May-20 14:28N 50°42' W 001°59'0 0.0
2019-May-20 14:00N 50°42' W 001°59'0 0.0
2019-May-20 13:27N 50°42' W 001°59'0 0.0
2019-May-20 12:55N 50°42' W 001°59'0 0.0
2019-May-20 12:28N 50°42' W 001°59'0 0.0
2019-May-20 11:55N 50°42' W 001°59'0 0.0
2019-May-20 11:28N 50°42' W 001°59'0 0.0
2019-May-20 10:55N 50°42' W 001°59'0 0.0
2019-May-20 10:28N 50°42' W 001°59'0 0.0
2019-May-20 09:55N 50°42' W 001°59'0 0.0
2019-May-20 09:25N 50°42' W 001°59'0 0.0
2019-May-20 08:58N 50°42' W 001°59'0 0.0
2019-May-20 08:28N 50°42' W 001°59'0 0.0
2019-May-20 07:58N 50°42' W 001°59'0 0.0
2019-May-20 07:28N 50°42' W 001°59'0 0.0
2019-May-20 06:58N 50°42' W 001°59'0 0.0
2019-May-20 06:28N 50°42' W 001°59'0 0.0
2019-May-20 05:59N 50°42' W 001°59'0 0.1
2019-May-20 05:30N 50°42' W 001°59'1 2.8
2019-May-20 05:00N 50°42' W 001°57'3 6.7
2019-May-20 04:30N 50°39' W 001°55'5 9.6
2019-May-20 04:00N 50°34' W 001°54'510.9
2019-May-20 03:30N 50°29' W 001°55'2911.7
2019-May-20 01:04N 50°00' W 002°01'111.8
2019-May-20 00:58N 49°59' W 002°01'1211.8
2019-May-19 23:58N 49°47' W 002°03'1111.2
2019-May-19 22:58N 49°37' W 002°07'511.1
2019-May-19 22:30N 49°32' W 002°09'711.1
2019-May-19 21:52N 49°25' W 002°13'410.7
2019-May-19 21:30N 49°22' W 002°16'510.3
2019-May-19 21:00N 49°18' W 002°22'611.1
2019-May-19 20:29N 49°13' W 002°23'812.2
2019-May-19 19:51N 49°05' W 002°23'30 2.9
2019-May-19 09:31N 48°39' W 002°01'0 0.0
2019-May-19 05:59N 48°39' W 002°01'8612.5
2019-May-18 23:06N 48°51' W 004°11'112.3
2019-May-18 22:59N 48°51' W 004°13'812.0
2019-May-18 22:20N 48°48' W 004°24'411.7
2019-May-18 21:58N 48°47' W 004°30'511.5
2019-May-18 21:30N 48°45' W 004°38'611.7
2019-May-18 21:00N 48°43' W 004°46'612.0
2019-May-18 20:30N 48°42' W 004°55'612.3
2019-May-18 20:00N 48°40' W 005°04'612.7
2019-May-18 19:30N 48°38' W 005°13'712.9
2019-May-18 18:58N 48°33' W 005°20'1010.2
2019-May-18 17:58N 48°23' W 005°14'613.4
2019-May-18 17:30N 48°19' W 005°07'713.3
2019-May-18 17:00N 48°15' W 004°60'613.0
2019-May-18 16:31N 48°11' W 004°52'713.2
2019-May-18 16:00N 48°09' W 004°43'713.6
2019-May-18 15:30N 48°08' W 004°33'612.8
2019-May-18 15:00N 48°07' W 004°23'3 5.7
2019-May-18 14:30N 48°06' W 004°19'0 0.0
2019-May-18 13:59N 48°06' W 004°19'0 0.0
2019-May-18 13:29N 48°06' W 004°19'0 0.0
2019-May-18 12:59N 48°06' W 004°19'0 0.0
2019-May-18 12:29N 48°06' W 004°19'0 0.0
2019-May-18 11:59N 48°06' W 004°19'0 0.0
2019-May-18 11:29N 48°06' W 004°19'0 0.0
2019-May-18 10:59N 48°06' W 004°19'0 0.0
2019-May-18 10:29N 48°06' W 004°19'0 0.0
2019-May-18 09:59N 48°06' W 004°19'0 0.0
2019-May-18 09:29N 48°06' W 004°19'0 0.0
2019-May-18 08:59N 48°06' W 004°19'0 0.0
2019-May-18 08:29N 48°06' W 004°19'0 0.0
2019-May-18 07:59N 48°06' W 004°19'0 0.0
2019-May-18 07:31N 48°06' W 004°19'3 5.3
2019-May-18 07:00N 48°07' W 004°23'713.7
2019-May-18 06:30N 48°07' W 004°33'612.8
2019-May-18 06:00N 48°06' W 004°43'713.7
2019-May-18 05:30N 48°05' W 004°53'713.1
2019-May-18 05:00N 48°05' W 005°03'6 6.9
2019-May-18 04:09N 47°59' W 005°02'213.1
2019-May-18 03:58N 47°57' W 004°60'613.1
2019-May-18 03:29N 47°53' W 004°53'713.5
2019-May-18 02:58N 47°49' W 004°44'3014.1
2019-May-18 00:51N 47°30' W 004°10'514.1
2019-May-18 00:30N 47°27' W 004°04'714.2
2019-May-18 00:00N 47°23' W 003°56'714.0
2019-May-17 23:30N 47°18' W 003°48'713.9
2019-May-17 23:00N 47°14' W 003°41'713.8
2019-May-17 22:30N 47°09' W 003°33'1313.6
2019-May-17 21:31N 47°01' W 003°17'113.4
2019-May-17 21:25N 47°00' W 003°16'1713.9
2019-May-17 20:12N 46°50' W 002°56'1913.9
2019-May-17 18:51N 46°38' W 002°35'1713.7
2019-May-17 17:36N 46°27' W 002°15'513.7
2019-May-17 17:14N 46°24' W 002°10'513.6
2019-May-17 16:54N 46°22' W 002°04'713.6
2019-May-17 16:25N 46°18' W 001°57'613.5
2019-May-17 15:58N 46°14' W 001°49'613.4
2019-May-17 15:30N 46°11' W 001°42'713.2
2019-May-17 15:00N 46°09' W 001°33'713.5
2019-May-17 14:31N 46°07' W 001°24'611.1
2019-May-17 14:01N 46°07' W 001°16'3 6.7
2019-May-17 13:31N 46°10' W 001°13'0 0.1
2019-May-17 12:58N 46°10' W 001°13'0 0.0
2019-May-17 12:28N 46°10' W 001°13'0 0.0
2019-May-17 11:58N 46°10' W 001°13'0 0.0
2019-May-17 11:28N 46°10' W 001°13'0 0.0
2019-May-17 10:58N 46°10' W 001°13'0 0.0
2019-May-17 10:28N 46°10' W 001°13'0 0.0
2019-May-17 09:58N 46°10' W 001°13'0 0.0
2019-May-17 09:28N 46°10' W 001°13'0 0.0
2019-May-17 08:58N 46°10' W 001°13'0 0.0
2019-May-17 08:28N 46°10' W 001°13'0 0.0
2019-May-17 07:58N 46°10' W 001°13'0 0.0
2019-May-17 07:28N 46°10' W 001°13'0 0.0
2019-May-17 06:58N 46°10' W 001°13'0 0.0
2019-May-17 06:28N 46°10' W 001°13'0 0.0
2019-May-17 05:58N 46°10' W 001°13'0 0.0
2019-May-17 05:28N 46°10' W 001°13'0 0.0
2019-May-17 04:58N 46°10' W 001°13'0 0.0
2019-May-17 04:28N 46°10' W 001°13'0 0.0
2019-May-17 03:58N 46°10' W 001°13'0 0.0
2019-May-17 03:30N 46°10' W 001°13'0 0.6
2019-May-17 03:00N 46°09' W 001°13'4 7.0
2019-May-17 02:31N 46°06' W 001°16'4 8.5
2019-May-17 02:00N 46°06' W 001°22'5 9.7
2019-May-17 01:30N 46°06' W 001°29'510.7
2019-May-17 01:00N 46°03' W 001°35'510.6
2019-May-17 00:30N 46°00' W 001°42'510.3
2019-May-17 00:00N 45°58' W 001°48'5 9.6
2019-May-16 23:30N 45°55' W 001°54'5 9.7
2019-May-16 23:00N 45°52' W 001°60'610.5
2019-May-16 22:27N 45°48' W 001°54'511.2
2019-May-16 21:59N 45°46' W 001°48'2310.6
2019-May-16 19:46N 45°39' W 001°16'513.8
2019-May-16 19:26N 45°39' W 001°09'615.0
2019-May-16 19:01N 45°34' W 001°02'714.8
2019-May-16 18:30N 45°29' W 000°56'816.1
2019-May-16 18:00N 45°22' W 000°49'4 0.1
2019-May-14 23:42N 45°25' W 000°52'212.9
2019-May-14 23:30N 45°27' W 000°54'613.0
2019-May-14 23:00N 45°32' W 001°01'612.6
2019-May-14 22:30N 45°37' W 001°06'612.3
2019-May-14 22:00N 45°39' W 001°14'612.8
2019-May-14 21:30N 45°36' W 001°22'4713.3
2019-May-14 17:58N 45°16' W 002°22'613.8
2019-May-14 17:30N 45°13' W 002°30'713.5
2019-May-14 17:00N 45°10' W 002°39'913.5
2019-May-14 16:21N 45°07' W 002°51'513.3
2019-May-14 15:57N 45°04' W 002°57'613.3
2019-May-14 15:30N 45°02' W 003°05'1013.2
2019-May-14 14:45N 44°58' W 003°18'  
2019-May-12 04:34N 42°15' W 008°44'0 2.5
2019-May-12 04:30N 42°15' W 008°44'4 7.1
2019-May-12 04:00N 42°13' W 008°49'5 9.2
2019-May-12 03:30N 42°10' W 008°53'611.2
2019-May-12 03:00N 42°06' W 008°58'5612.3
2019-May-11 22:29N 41°12' W 008°46'3 4.4
2019-May-11 21:49N 41°11' W 008°42'0 0.0
2019-May-11 21:22N 41°11' W 008°42'0 0.0
2019-May-11 20:58N 41°11' W 008°42'0 0.0
2019-May-11 20:19N 41°11' W 008°42'0 0.0
2019-May-11 19:55N 41°11' W 008°42'0 0.0
2019-May-11 19:22N 41°11' W 008°42'0 0.0
2019-May-11 18:55N 41°11' W 008°42'0 0.0
2019-May-11 18:28N 41°11' W 008°42'0 0.0
2019-May-11 17:58N 41°11' W 008°42'0 0.0
2019-May-11 17:22N 41°11' W 008°42'0 0.0
2019-May-11 16:58N 41°11' W 008°42'0 0.0
2019-May-11 16:25N 41°11' W 008°42'0 0.0
2019-May-11 15:52N 41°11' W 008°42'0 0.0
2019-May-11 15:28N 41°11' W 008°42'0 0.0
2019-May-11 14:58N 41°11' W 008°42'0 0.0
2019-May-11 14:25N 41°11' W 008°42'0 0.0
2019-May-11 13:58N 41°11' W 008°42'0 0.0
2019-May-11 13:28N 41°11' W 008°42'0 0.0
2019-May-11 12:55N 41°11' W 008°42'0 0.0
2019-May-11 12:28N 41°11' W 008°42'0 0.0
2019-May-11 11:58N 41°11' W 008°42'0 0.0
2019-May-11 11:28N 41°11' W 008°42'0 0.0
2019-May-11 10:55N 41°11' W 008°42'0 0.0
2019-May-11 10:25N 41°11' W 008°42'0 0.0
2019-May-11 09:55N 41°11' W 008°42'0 0.0
2019-May-11 09:28N 41°11' W 008°42'0 0.0
2019-May-11 08:52N 41°11' W 008°42'0 0.0
2019-May-11 08:19N 41°11' W 008°42'0 0.0
2019-May-11 07:58N 41°11' W 008°42'0 0.0
2019-May-11 07:28N 41°11' W 008°42'0 0.0
2019-May-11 06:58N 41°11' W 008°42'0 0.0
2019-May-11 06:30N 41°11' W 008°42'1 2.7
2019-May-11 06:00N 41°10' W 008°42'8412.1
2019-May-10 23:06N 39°54' W 009°28'213.4
2019-May-10 22:56N 39°52' W 009°30'1413.2
2019-May-10 21:53N 39°40' W 009°38'613.3
2019-May-10 21:24N 39°34' W 009°42'1513.3
2019-May-10 20:14N 39°18' W 009°43'313.4
2019-May-10 20:00N 39°15' W 009°43'613.1
2019-May-10 19:31N 39°09' W 009°43'713.3
2019-May-10 19:00N 39°02' W 009°43'713.2
2019-May-10 18:30N 38°55' W 009°42'713.3
2019-May-10 18:00N 38°49' W 009°42'713.3
2019-May-10 17:30N 38°42' W 009°41'611.3
2019-May-10 17:01N 38°37' W 009°38'  
Track history (hours):
 
Tides and Currents Weather Stations Pressure Air Temp Water Temp Dewpoint Dewpoint Depression Visibility Wind Speed Wind Dir Waves Ship Positions

Orion II

Last reported at 2019-May-20 16:30 UTC. Time now 2019-May-20 16:49 UTC.
Position N 50°38' W 001°55'.

Length 88 m; draft 4.1 m.

Type: Passenger vessel. MMSI: 249556000.

Date/timePositionNaut miles runAvg speedWind from/ knotsBaromVisibWave heightAir tempDewpointWater temp
2019-May-20 16:30N 50°38' W 001°55'5 9.7
2019-May-20 16:00N 50°42' W 001°59'0 0.0
2019-May-20 15:30N 50°42' W 001°59'0 0.0
2019-May-20 14:58N 50°42' W 001°59'0 0.0
2019-May-20 14:28N 50°42' W 001°59'0 0.0
2019-May-20 14:00N 50°42' W 001°59'0 0.0
2019-May-20 13:27N 50°42' W 001°59'0 0.0
2019-May-20 12:55N 50°42' W 001°59'0 0.0
2019-May-20 12:28N 50°42' W 001°59'0 0.0
2019-May-20 11:55N 50°42' W 001°59'0 0.0
2019-May-20 11:28N 50°42' W 001°59'0 0.0
2019-May-20 10:55N 50°42' W 001°59'0 0.0
2019-May-20 10:28N 50°42' W 001°59'0 0.0
2019-May-20 09:55N 50°42' W 001°59'0 0.0
2019-May-20 09:25N 50°42' W 001°59'0 0.0
2019-May-20 08:58N 50°42' W 001°59'0 0.0
2019-May-20 08:28N 50°42' W 001°59'0 0.0
2019-May-20 07:58N 50°42' W 001°59'0 0.0
2019-May-20 07:28N 50°42' W 001°59'0 0.0
2019-May-20 06:58N 50°42' W 001°59'0 0.0
2019-May-20 06:28N 50°42' W 001°59'0 0.0
2019-May-20 05:59N 50°42' W 001°59'0 0.1
2019-May-20 05:30N 50°42' W 001°59'1 2.8
2019-May-20 05:00N 50°42' W 001°57'3 6.7
2019-May-20 04:30N 50°39' W 001°55'5 9.6
2019-May-20 04:00N 50°34' W 001°54'510.9
2019-May-20 03:30N 50°29' W 001°55'2911.7
2019-May-20 01:04N 50°00' W 002°01'111.8
2019-May-20 00:58N 49°59' W 002°01'1211.8
2019-May-19 23:58N 49°47' W 002°03'1111.2
2019-May-19 22:58N 49°37' W 002°07'511.1
2019-May-19 22:30N 49°32' W 002°09'711.1
2019-May-19 21:52N 49°25' W 002°13'410.7
2019-May-19 21:30N 49°22' W 002°16'510.3
2019-May-19 21:00N 49°18' W 002°22'611.1
2019-May-19 20:29N 49°13' W 002°23'812.2
2019-May-19 19:51N 49°05' W 002°23'30 2.9
2019-May-19 09:31N 48°39' W 002°01'0 0.0
2019-May-19 05:59N 48°39' W 002°01'8612.5
2019-May-18 23:06N 48°51' W 004°11'112.3
2019-May-18 22:59N 48°51' W 004°13'812.0
2019-May-18 22:20N 48°48' W 004°24'411.7
2019-May-18 21:58N 48°47' W 004°30'511.5
2019-May-18 21:30N 48°45' W 004°38'611.7
2019-May-18 21:00N 48°43' W 004°46'612.0
2019-May-18 20:30N 48°42' W 004°55'612.3
2019-May-18 20:00N 48°40' W 005°04'612.7
2019-May-18 19:30N 48°38' W 005°13'712.9
2019-May-18 18:58N 48°33' W 005°20'1010.2
2019-May-18 17:58N 48°23' W 005°14'613.4
2019-May-18 17:30N 48°19' W 005°07'713.3
2019-May-18 17:00N 48°15' W 004°60'613.0
2019-May-18 16:31N 48°11' W 004°52'713.2
2019-May-18 16:00N 48°09' W 004°43'713.6
2019-May-18 15:30N 48°08' W 004°33'612.8
2019-May-18 15:00N 48°07' W 004°23'3 5.7
2019-May-18 14:30N 48°06' W 004°19'0 0.0
2019-May-18 13:59N 48°06' W 004°19'0 0.0
2019-May-18 13:29N 48°06' W 004°19'0 0.0
2019-May-18 12:59N 48°06' W 004°19'0 0.0
2019-May-18 12:29N 48°06' W 004°19'0 0.0
2019-May-18 11:59N 48°06' W 004°19'0 0.0
2019-May-18 11:29N 48°06' W 004°19'0 0.0
2019-May-18 10:59N 48°06' W 004°19'0 0.0
2019-May-18 10:29N 48°06' W 004°19'0 0.0
2019-May-18 09:59N 48°06' W 004°19'0 0.0
2019-May-18 09:29N 48°06' W 004°19'0 0.0
2019-May-18 08:59N 48°06' W 004°19'0 0.0
2019-May-18 08:29N 48°06' W 004°19'0 0.0
2019-May-18 07:59N 48°06' W 004°19'0 0.0
2019-May-18 07:31N 48°06' W 004°19'3 5.3
2019-May-18 07:00N 48°07' W 004°23'713.7
2019-May-18 06:30N 48°07' W 004°33'612.8
2019-May-18 06:00N 48°06' W 004°43'713.7
2019-May-18 05:30N 48°05' W 004°53'713.1
2019-May-18 05:00N 48°05' W 005°03'6 6.9
2019-May-18 04:09N 47°59' W 005°02'213.1
2019-May-18 03:58N 47°57' W 004°60'613.1
2019-May-18 03:29N 47°53' W 004°53'713.5
2019-May-18 02:58N 47°49' W 004°44'3014.1
2019-May-18 00:51N 47°30' W 004°10'514.1
2019-May-18 00:30N 47°27' W 004°04'714.2
2019-May-18 00:00N 47°23' W 003°56'714.0
2019-May-17 23:30N 47°18' W 003°48'713.9
2019-May-17 23:00N 47°14' W 003°41'713.8
2019-May-17 22:30N 47°09' W 003°33'1313.6
2019-May-17 21:31N 47°01' W 003°17'113.4
2019-May-17 21:25N 47°00' W 003°16'1713.9
2019-May-17 20:12N 46°50' W 002°56'1913.9
2019-May-17 18:51N 46°38' W 002°35'1713.7
2019-May-17 17:36N 46°27' W 002°15'513.7
2019-May-17 17:14N 46°24' W 002°10'513.6
2019-May-17 16:54N 46°22' W 002°04'713.6
2019-May-17 16:25N 46°18' W 001°57'613.5
2019-May-17 15:58N 46°14' W 001°49'613.4
2019-May-17 15:30N 46°11' W 001°42'713.2
2019-May-17 15:00N 46°09' W 001°33'713.5
2019-May-17 14:31N 46°07' W 001°24'611.1
2019-May-17 14:01N 46°07' W 001°16'3 6.7
2019-May-17 13:31N 46°10' W 001°13'0 0.1
2019-May-17 12:58N 46°10' W 001°13'0 0.0
2019-May-17 12:28N 46°10' W 001°13'0 0.0
2019-May-17 11:58N 46°10' W 001°13'0 0.0
2019-May-17 11:28N 46°10' W 001°13'0 0.0
2019-May-17 10:58N 46°10' W 001°13'0 0.0
2019-May-17 10:28N 46°10' W 001°13'0 0.0
2019-May-17 09:58N 46°10' W 001°13'0 0.0
2019-May-17 09:28N 46°10' W 001°13'0 0.0
2019-May-17 08:58N 46°10' W 001°13'0 0.0
2019-May-17 08:28N 46°10' W 001°13'0 0.0
2019-May-17 07:58N 46°10' W 001°13'0 0.0
2019-May-17 07:28N 46°10' W 001°13'0 0.0
2019-May-17 06:58N 46°10' W 001°13'0 0.0
2019-May-17 06:28N 46°10' W 001°13'0 0.0
2019-May-17 05:58N 46°10' W 001°13'0 0.0
2019-May-17 05:28N 46°10' W 001°13'0 0.0
2019-May-17 04:58N 46°10' W 001°13'0 0.0
2019-May-17 04:28N 46°10' W 001°13'0 0.0
2019-May-17 03:58N 46°10' W 001°13'0 0.0
2019-May-17 03:30N 46°10' W 001°13'0 0.6
2019-May-17 03:00N 46°09' W 001°13'4 7.0
2019-May-17 02:31N 46°06' W 001°16'4 8.5
2019-May-17 02:00N 46°06' W 001°22'5 9.7
2019-May-17 01:30N 46°06' W 001°29'510.7
2019-May-17 01:00N 46°03' W 001°35'510.6
2019-May-17 00:30N 46°00' W 001°42'510.3
2019-May-17 00:00N 45°58' W 001°48'5 9.6
2019-May-16 23:30N 45°55' W 001°54'5 9.7
2019-May-16 23:00N 45°52' W 001°60'610.5
2019-May-16 22:27N 45°48' W 001°54'511.2
2019-May-16 21:59N 45°46' W 001°48'2310.6
2019-May-16 19:46N 45°39' W 001°16'513.8
2019-May-16 19:26N 45°39' W 001°09'615.0
2019-May-16 19:01N 45°34' W 001°02'714.8
2019-May-16 18:30N 45°29' W 000°56'816.1
2019-May-16 18:00N 45°22' W 000°49'4 0.1
2019-May-14 23:42N 45°25' W 000°52'212.9
2019-May-14 23:30N 45°27' W 000°54'613.0
2019-May-14 23:00N 45°32' W 001°01'612.6
2019-May-14 22:30N 45°37' W 001°06'612.3
2019-May-14 22:00N 45°39' W 001°14'612.8
2019-May-14 21:30N 45°36' W 001°22'4713.3
2019-May-14 17:58N 45°16' W 002°22'613.8
2019-May-14 17:30N 45°13' W 002°30'713.5
2019-May-14 17:00N 45°10' W 002°39'913.5
2019-May-14 16:21N 45°07' W 002°51'513.3
2019-May-14 15:57N 45°04' W 002°57'613.3
2019-May-14 15:30N 45°02' W 003°05'1013.2
2019-May-14 14:45N 44°58' W 003°18'  
2019-May-12 04:34N 42°15' W 008°44'0 2.5
2019-May-12 04:30N 42°15' W 008°44'4 7.1
2019-May-12 04:00N 42°13' W 008°49'5 9.2
2019-May-12 03:30N 42°10' W 008°53'611.2
2019-May-12 03:00N 42°06' W 008°58'5612.3
2019-May-11 22:29N 41°12' W 008°46'3 4.4
2019-May-11 21:49N 41°11' W 008°42'0 0.0
2019-May-11 21:22N 41°11' W 008°42'0 0.0
2019-May-11 20:58N 41°11' W 008°42'0 0.0
2019-May-11 20:19N 41°11' W 008°42'0 0.0
2019-May-11 19:55N 41°11' W 008°42'0 0.0
2019-May-11 19:22N 41°11' W 008°42'0 0.0
2019-May-11 18:55N 41°11' W 008°42'0 0.0
2019-May-11 18:28N 41°11' W 008°42'0 0.0
2019-May-11 17:58N 41°11' W 008°42'0 0.0
2019-May-11 17:22N 41°11' W 008°42'0 0.0
2019-May-11 16:58N 41°11' W 008°42'0 0.0
2019-May-11 16:25N 41°11' W 008°42'0 0.0
2019-May-11 15:52N 41°11' W 008°42'0 0.0
2019-May-11 15:28N 41°11' W 008°42'0 0.0
2019-May-11 14:58N 41°11' W 008°42'0 0.0
2019-May-11 14:25N 41°11' W 008°42'0 0.0
2019-May-11 13:58N 41°11' W 008°42'0 0.0
2019-May-11 13:28N 41°11' W 008°42'0 0.0
2019-May-11 12:55N 41°11' W 008°42'0 0.0
2019-May-11 12:28N 41°11' W 008°42'0 0.0
2019-May-11 11:58N 41°11' W 008°42'0 0.0
2019-May-11 11:28N 41°11' W 008°42'0 0.0
2019-May-11 10:55N 41°11' W 008°42'0 0.0
2019-May-11 10:25N 41°11' W 008°42'0 0.0
2019-May-11 09:55N 41°11' W 008°42'0 0.0
2019-May-11 09:28N 41°11' W 008°42'0 0.0
2019-May-11 08:52N 41°11' W 008°42'0 0.0
2019-May-11 08:19N 41°11' W 008°42'0 0.0
2019-May-11 07:58N 41°11' W 008°42'0 0.0
2019-May-11 07:28N 41°11' W 008°42'0 0.0
2019-May-11 06:58N 41°11' W 008°42'0 0.0
2019-May-11 06:30N 41°11' W 008°42'1 2.7
2019-May-11 06:00N 41°10' W 008°42'8412.1
2019-May-10 23:06N 39°54' W 009°28'213.4
2019-May-10 22:56N 39°52' W 009°30'1413.2
2019-May-10 21:53N 39°40' W 009°38'613.3
2019-May-10 21:24N 39°34' W 009°42'1513.3
2019-May-10 20:14N 39°18' W 009°43'313.4
2019-May-10 20:00N 39°15' W 009°43'613.1
2019-May-10 19:31N 39°09' W 009°43'713.3
2019-May-10 19:00N 39°02' W 009°43'713.2
2019-May-10 18:30N 38°55' W 009°42'713.3
2019-May-10 18:00N 38°49' W 009°42'713.3
2019-May-10 17:30N 38°42' W 009°41'611.3
2019-May-10 17:01N 38°37' W 009°38'  

Dump ship's entire track history